sensor_id;sensor_type;location;lat;lon;timestamp;pressure;altitude;pressure_sealevel;temperature;humidity
75891;BME280;64571;47.512;19.054;2023-02-11T00:02:35;102500.03;;;0.80;66.67
75891;BME280;64571;47.512;19.054;2023-02-11T00:05:38;102492.00;;;0.79;66.63
75891;BME280;64571;47.512;19.054;2023-02-11T00:08:40;102474.47;;;0.65;66.38
75891;BME280;64571;47.512;19.054;2023-02-11T00:11:43;102479.41;;;0.69;66.62
75891;BME280;64571;47.512;19.054;2023-02-11T00:14:45;102458.00;;;0.50;66.83
75891;BME280;64571;47.512;19.054;2023-02-11T00:17:48;102459.50;;;0.53;66.83
75891;BME280;64571;47.512;19.054;2023-02-11T00:20:51;102456.59;;;0.54;66.64
75891;BME280;64571;47.512;19.054;2023-02-11T00:23:54;102464.69;;;0.70;66.68
75891;BME280;64571;47.512;19.054;2023-02-11T00:26:59;102471.06;;;0.63;66.99
75891;BME280;64571;47.512;19.054;2023-02-11T00:30:02;102463.72;;;0.63;67.06
75891;BME280;64571;47.512;19.054;2023-02-11T00:33:06;102444.97;;;0.52;66.48
75891;BME280;64571;47.512;19.054;2023-02-11T00:36:14;102467.13;;;0.65;66.60
75891;BME280;64571;47.512;19.054;2023-02-11T00:39:19;102457.03;;;0.66;66.66
75891;BME280;64571;47.512;19.054;2023-02-11T00:42:22;102461.00;;;0.63;66.62
75891;BME280;64571;47.512;19.054;2023-02-11T00:45:24;102461.47;;;0.67;66.54
75891;BME280;64571;47.512;19.054;2023-02-11T00:48:27;102459.22;;;0.70;66.37
75891;BME280;64571;47.512;19.054;2023-02-11T00:51:29;102465.38;;;0.72;66.12
75891;BME280;64571;47.512;19.054;2023-02-11T00:54:32;102459.56;;;0.67;66.14
75891;BME280;64571;47.512;19.054;2023-02-11T00:57:34;102462.62;;;0.72;66.03
75891;BME280;64571;47.512;19.054;2023-02-11T01:00:37;102451.16;;;0.77;65.54
75891;BME280;64571;47.512;19.054;2023-02-11T01:03:40;102446.03;;;0.74;64.81
75891;BME280;64571;47.512;19.054;2023-02-11T01:06:43;102447.19;;;0.80;65.92
75891;BME280;64571;47.512;19.054;2023-02-11T01:09:45;102439.72;;;0.73;66.21
75891;BME280;64571;47.512;19.054;2023-02-11T01:12:48;102431.38;;;0.67;67.01
75891;BME280;64571;47.512;19.054;2023-02-11T01:15:52;102437.56;;;0.61;65.42
75891;BME280;64571;47.512;19.054;2023-02-11T01:18:55;102396.00;;;0.42;65.34
75891;BME280;64571;47.512;19.054;2023-02-11T01:21:57;102419.47;;;0.60;65.72
75891;BME280;64571;47.512;19.054;2023-02-11T01:25:00;102409.72;;;0.57;65.39
75891;BME280;64571;47.512;19.054;2023-02-11T01:28:03;102409.22;;;0.54;65.49
75891;BME280;64571;47.512;19.054;2023-02-11T01:31:06;102408.22;;;0.55;65.18
75891;BME280;64571;47.512;19.054;2023-02-11T01:34:08;102402.84;;;0.61;64.54
75891;BME280;64571;47.512;19.054;2023-02-11T01:37:11;102396.47;;;0.69;63.47
75891;BME280;64571;47.512;19.054;2023-02-11T01:40:16;102375.69;;;0.60;63.72
75891;BME280;64571;47.512;19.054;2023-02-11T01:43:19;102377.94;;;0.56;66.16
75891;BME280;64571;47.512;19.054;2023-02-11T01:49:37;102393.44;;;0.64;65.99
75891;BME280;64571;47.512;19.054;2023-02-11T01:52:40;102377.09;;;0.56;67.07
75891;BME280;64571;47.512;19.054;2023-02-11T01:55:44;102396.84;;;0.66;67.82
75891;BME280;64571;47.512;19.054;2023-02-11T01:59:14;102394.06;;;0.51;68.39
75891;BME280;64571;47.512;19.054;2023-02-11T02:02:23;102374.91;;;0.28;69.17
75891;BME280;64571;47.512;19.054;2023-02-11T02:05:32;102392.09;;;0.37;69.45
75891;BME280;64571;47.512;19.054;2023-02-11T02:08:45;102382.25;;;0.28;68.60
75891;BME280;64571;47.512;19.054;2023-02-11T02:11:49;102397.06;;;0.33;68.36
75891;BME280;64571;47.512;19.054;2023-02-11T02:14:51;102397.28;;;0.32;68.43
75891;BME280;64571;47.512;19.054;2023-02-11T02:38:24;102390.78;;;0.02;69.77
75891;BME280;64571;47.512;19.054;2023-02-11T02:41:33;102382.06;;;-0.02;69.79
75891;BME280;64571;47.512;19.054;2023-02-11T02:44:36;102384.34;;;-0.14;69.94
75891;BME280;64571;47.512;19.054;2023-02-11T02:47:39;102390.72;;;-0.21;70.19
75891;BME280;64571;47.512;19.054;2023-02-11T02:50:42;102371.09;;;-0.25;69.89
75891;BME280;64571;47.512;19.054;2023-02-11T03:04:22;102369.78;;;-0.06;69.64
75891;BME280;64571;47.512;19.054;2023-02-11T03:07:39;102373.06;;;-0.11;69.49
75891;BME280;64571;47.512;19.054;2023-02-11T03:10:47;102372.22;;;-0.11;69.77
75891;BME280;64571;47.512;19.054;2023-02-11T03:13:51;102373.94;;;-0.18;70.63
75891;BME280;64571;47.512;19.054;2023-02-11T03:16:57;102378.56;;;-0.19;70.08
75891;BME280;64571;47.512;19.054;2023-02-11T03:20:03;102366.81;;;-0.28;69.45
75891;BME280;64571;47.512;19.054;2023-02-11T03:23:12;102371.22;;;-0.18;69.36
75891;BME280;64571;47.512;19.054;2023-02-11T03:26:43;102361.00;;;-0.24;69.48
75891;BME280;64571;47.512;19.054;2023-02-11T03:29:57;102363.47;;;-0.38;69.49
75891;BME280;64571;47.512;19.054;2023-02-11T03:33:25;102325.63;;;-0.49;69.45
75891;BME280;64571;47.512;19.054;2023-02-11T03:36:55;102355.75;;;-0.34;69.29
75891;BME280;64571;47.512;19.054;2023-02-11T03:40:03;102361.41;;;-0.36;69.46
75891;BME280;64571;47.512;19.054;2023-02-11T03:43:17;102342.13;;;-0.34;69.71
75891;BME280;64571;47.512;19.054;2023-02-11T03:46:24;102317.25;;;-0.47;70.04
75891;BME280;64571;47.512;19.054;2023-02-11T03:49:30;102307.31;;;-0.40;69.91
75891;BME280;64571;47.512;19.054;2023-02-11T03:52:35;102307.78;;;-0.37;69.52
75891;BME280;64571;47.512;19.054;2023-02-11T03:55:39;102303.34;;;-0.30;69.94
75891;BME280;64571;47.512;19.054;2023-02-11T03:58:44;102322.25;;;-0.28;70.37
75891;BME280;64571;47.512;19.054;2023-02-11T04:01:47;102304.91;;;-0.35;70.64
75891;BME280;64571;47.512;19.054;2023-02-11T04:04:50;102308.78;;;-0.30;70.58
75891;BME280;64571;47.512;19.054;2023-02-11T04:07:52;102307.44;;;-0.34;70.59
75891;BME280;64571;47.512;19.054;2023-02-11T04:10:55;102299.91;;;-0.32;70.58
75891;BME280;64571;47.512;19.054;2023-02-11T04:13:57;102295.13;;;-0.30;70.29
75891;BME280;64571;47.512;19.054;2023-02-11T04:17:01;102272.38;;;-0.45;70.22
75891;BME280;64571;47.512;19.054;2023-02-11T04:20:04;102260.09;;;-0.49;70.16
75891;BME280;64571;47.512;19.054;2023-02-11T04:23:07;102279.47;;;-0.36;69.85
75891;BME280;64571;47.512;19.054;2023-02-11T04:26:09;102277.59;;;-0.35;70.07
75891;BME280;64571;47.512;19.054;2023-02-11T04:29:12;102283.91;;;-0.35;70.25
75891;BME280;64571;47.512;19.054;2023-02-11T04:32:14;102275.41;;;-0.40;69.70
75891;BME280;64571;47.512;19.054;2023-02-11T04:35:17;102277.94;;;-0.38;69.59
75891;BME280;64571;47.512;19.054;2023-02-11T04:38:20;102282.56;;;-0.39;69.78
75891;BME280;64571;47.512;19.054;2023-02-11T04:41:25;102278.13;;;-0.40;69.63
75891;BME280;64571;47.512;19.054;2023-02-11T04:44:27;102277.09;;;-0.39;69.63
75891;BME280;64571;47.512;19.054;2023-02-11T04:47:30;102277.09;;;-0.39;69.65
75891;BME280;64571;47.512;19.054;2023-02-11T04:50:32;102282.22;;;-0.36;69.36
75891;BME280;64571;47.512;19.054;2023-02-11T04:53:35;102279.53;;;-0.44;70.74
75891;BME280;64571;47.512;19.054;2023-02-11T04:56:38;102275.75;;;-0.43;71.17
75891;BME280;64571;47.512;19.054;2023-02-11T04:59:40;102274.06;;;-0.44;71.15
75891;BME280;64571;47.512;19.054;2023-02-11T05:02:43;102275.75;;;-0.43;70.98
75891;BME280;64571;47.512;19.054;2023-02-11T05:05:46;102282.56;;;-0.39;70.85
75891;BME280;64571;47.512;19.054;2023-02-11T05:08:48;102287.03;;;-0.46;71.43
75891;BME280;64571;47.512;19.054;2023-02-11T05:11:51;102288.38;;;-0.42;71.25
75891;BME280;64571;47.512;19.054;2023-02-11T05:14:54;102274.09;;;-0.52;70.96
75891;BME280;64571;47.512;19.054;2023-02-11T05:17:57;102290.47;;;-0.52;70.96
75891;BME280;64571;47.512;19.054;2023-02-11T05:21:05;102290.50;;;-0.60;71.17
75891;BME280;64571;47.512;19.054;2023-02-11T05:24:08;102286.63;;;-0.66;71.12
75891;BME280;64571;47.512;19.054;2023-02-11T05:27:10;102283.19;;;-0.68;72.62
75891;BME280;64571;47.512;19.054;2023-02-11T05:30:13;102292.97;;;-0.82;72.10
75891;BME280;64571;47.512;19.054;2023-02-11T05:33:15;102293.81;;;-0.81;72.15
75891;BME280;64571;47.512;19.054;2023-02-11T05:36:18;102277.31;;;-0.88;72.04
75891;BME280;64571;47.512;19.054;2023-02-11T05:39:20;102276.28;;;-0.87;71.99
75891;BME280;64571;47.512;19.054;2023-02-11T05:42:23;102281.75;;;-0.87;71.53
75891;BME280;64571;47.512;19.054;2023-02-11T05:45:25;102257.91;;;-0.93;71.14
75891;BME280;64571;47.512;19.054;2023-02-11T05:48:29;102258.41;;;-0.89;71.40
75891;BME280;64571;47.512;19.054;2023-02-11T05:51:31;102278.03;;;-0.94;71.66
75891;BME280;64571;47.512;19.054;2023-02-11T05:54:34;102278.91;;;-1.02;72.14
75891;BME280;64571;47.512;19.054;2023-02-11T05:57:38;102245.00;;;-1.15;71.93
75891;BME280;64571;47.512;19.054;2023-02-11T06:00:40;102276.69;;;-0.98;71.51
75891;BME280;64571;47.512;19.054;2023-02-11T06:03:43;102252.66;;;-1.11;71.43
75891;BME280;64571;47.512;19.054;2023-02-11T06:06:45;102255.91;;;-1.07;71.39
75891;BME280;64571;47.512;19.054;2023-02-11T06:09:48;102286.22;;;-0.94;71.58
75891;BME280;64571;47.512;19.054;2023-02-11T06:12:50;102280.75;;;-0.94;71.64
75891;BME280;64571;47.512;19.054;2023-02-11T06:15:58;102257.25;;;-1.03;71.80
75891;BME280;64571;47.512;19.054;2023-02-11T06:19:00;102279.31;;;-0.82;71.61
75891;BME280;64571;47.512;19.054;2023-02-11T06:22:03;102268.94;;;-0.86;71.78
75891;BME280;64571;47.512;19.054;2023-02-11T06:25:06;102259.25;;;-0.89;71.97
75891;BME280;64571;47.512;19.054;2023-02-11T06:28:08;102267.25;;;-0.87;72.26
75891;BME280;64571;47.512;19.054;2023-02-11T06:31:12;102255.66;;;-0.89;72.33
75891;BME280;64571;47.512;19.054;2023-02-11T06:34:14;102251.06;;;-0.89;72.54
75891;BME280;64571;47.512;19.054;2023-02-11T06:37:17;102252.84;;;-0.73;72.30
75891;BME280;64571;47.512;19.054;2023-02-11T06:40:19;102262.66;;;-0.56;71.71
75891;BME280;64571;47.512;19.054;2023-02-11T06:43:22;102264.72;;;-0.49;71.29
75891;BME280;64571;47.512;19.054;2023-02-11T06:46:25;102256.91;;;-0.30;70.93
75891;BME280;64571;47.512;19.054;2023-02-11T06:49:27;102254.66;;;-0.26;70.31
75891;BME280;64571;47.512;19.054;2023-02-11T06:52:31;102235.09;;;-0.38;70.32
75891;BME280;64571;47.512;19.054;2023-02-11T06:55:34;102227.59;;;-0.36;70.33
75891;BME280;64571;47.512;19.054;2023-02-11T06:58:37;102245.53;;;-0.18;70.33
75891;BME280;64571;47.512;19.054;2023-02-11T07:01:39;102225.84;;;-0.37;70.40
75891;BME280;64571;47.512;19.054;2023-02-11T07:04:42;102255.62;;;-0.19;70.14
75891;BME280;64571;47.512;19.054;2023-02-11T07:07:44;102242.75;;;-0.10;70.15
75891;BME280;64571;47.512;19.054;2023-02-11T07:10:47;102230.50;;;-0.14;69.79
75891;BME280;64571;47.512;19.054;2023-02-11T07:13:51;102243.13;;;0.10;69.46
75891;BME280;64571;47.512;19.054;2023-02-11T07:16:54;102246.81;;;0.17;69.20
75891;BME280;64571;47.512;19.054;2023-02-11T07:19:56;102238.75;;;0.23;69.19
75891;BME280;64571;47.512;19.054;2023-02-11T07:22:59;102232.88;;;0.27;68.78
75891;BME280;64571;47.512;19.054;2023-02-11T07:26:10;102217.69;;;0.09;68.58
75891;BME280;64571;47.512;19.054;2023-02-11T07:29:13;102249.16;;;0.43;67.88
75891;BME280;64571;47.512;19.054;2023-02-11T07:32:15;102249.00;;;0.59;67.40
75891;BME280;64571;47.512;19.054;2023-02-11T07:35:18;102244.88;;;0.93;66.52
75891;BME280;64571;47.512;19.054;2023-02-11T07:38:21;102238.72;;;1.20;65.48
75891;BME280;64571;47.512;19.054;2023-02-11T07:41:24;102209.06;;;1.24;62.97
75891;BME280;64571;47.512;19.054;2023-02-11T07:44:27;102204.56;;;1.52;61.86
75891;BME280;64571;47.512;19.054;2023-02-11T07:47:29;102209.47;;;1.57;62.01
75891;BME280;64571;47.512;19.054;2023-02-11T07:50:32;102219.72;;;1.70;61.01
75891;BME280;64571;47.512;19.054;2023-02-11T07:53:34;102216.00;;;1.77;61.67
75891;BME280;64571;47.512;19.054;2023-02-11T07:56:37;102204.97;;;1.71;60.90
75891;BME280;64571;47.512;19.054;2023-02-11T07:59:39;102221.50;;;1.77;59.00
75891;BME280;64571;47.512;19.054;2023-02-11T08:02:42;102217.47;;;1.95;59.39
75891;BME280;64571;47.512;19.054;2023-02-11T08:05:44;102202.31;;;1.99;58.39
75891;BME280;64571;47.512;19.054;2023-02-11T08:08:47;102207.38;;;2.02;57.66
75891;BME280;64571;47.512;19.054;2023-02-11T08:11:50;102204.06;;;2.07;57.38
75891;BME280;64571;47.512;19.054;2023-02-11T08:14:52;102181.97;;;2.15;56.80
75891;BME280;64571;47.512;19.054;2023-02-11T08:17:55;102190.72;;;2.25;56.86
75891;BME280;64571;47.512;19.054;2023-02-11T08:21:06;102222.00;;;2.31;56.79
75891;BME280;64571;47.512;19.054;2023-02-11T08:24:09;102220.84;;;2.46;56.57
75891;BME280;64571;47.512;19.054;2023-02-11T08:27:12;102192.47;;;2.33;56.84
75891;BME280;64571;47.512;19.054;2023-02-11T08:30:14;102211.12;;;2.44;55.77
75891;BME280;64571;47.512;19.054;2023-02-11T08:33:16;102218.06;;;2.40;55.04
75891;BME280;64571;47.512;19.054;2023-02-11T08:36:22;102214.06;;;2.42;55.09
75891;BME280;64571;47.512;19.054;2023-02-11T08:39:24;102220.00;;;2.46;54.95
75891;BME280;64571;47.512;19.054;2023-02-11T08:42:27;102220.25;;;2.51;55.09
75891;BME280;64571;47.512;19.054;2023-02-11T08:45:29;102218.56;;;2.50;55.07
75891;BME280;64571;47.512;19.054;2023-02-11T08:48:32;102190.28;;;2.49;55.32
75891;BME280;64571;47.512;19.054;2023-02-11T08:51:35;102209.19;;;2.66;55.23
75891;BME280;64571;47.512;19.054;2023-02-11T08:54:37;102184.66;;;2.58;55.13
75891;BME280;64571;47.512;19.054;2023-02-11T08:57:40;102212.25;;;2.84;54.94
75891;BME280;64571;47.512;19.054;2023-02-11T09:00:42;102191.16;;;2.85;54.81
75891;BME280;64571;47.512;19.054;2023-02-11T09:03:46;102181.53;;;2.67;54.41
75891;BME280;64571;47.512;19.054;2023-02-11T09:06:49;102200.25;;;2.92;54.34
75891;BME280;64571;47.512;19.054;2023-02-11T09:09:52;102196.06;;;2.96;54.24
75891;BME280;64571;47.512;19.054;2023-02-11T09:12:54;102199.25;;;2.99;54.36
75891;BME280;64571;47.512;19.054;2023-02-11T09:15:58;102187.94;;;3.16;54.00
75891;BME280;64571;47.512;19.054;2023-02-11T09:19:03;102188.22;;;3.41;54.02
75891;BME280;64571;47.512;19.054;2023-02-11T09:22:05;102188.91;;;3.63;53.51
75891;BME280;64571;47.512;19.054;2023-02-11T09:25:10;102176.88;;;3.77;52.78
75891;BME280;64571;47.512;19.054;2023-02-11T09:28:12;102166.13;;;3.89;52.23
75891;BME280;64571;47.512;19.054;2023-02-11T09:31:17;102173.53;;;4.35;51.44
75891;BME280;64571;47.512;19.054;2023-02-11T09:34:20;102143.28;;;4.35;50.46
75891;BME280;64571;47.512;19.054;2023-02-11T09:37:23;102170.56;;;4.23;51.10
75891;BME280;64571;47.512;19.054;2023-02-11T09:40:25;102169.06;;;4.60;50.97
75891;BME280;64571;47.512;19.054;2023-02-11T09:43:40;102141.97;;;4.57;50.44
75891;BME280;64571;47.512;19.054;2023-02-11T09:46:52;102167.34;;;4.72;50.90
75891;BME280;64571;47.512;19.054;2023-02-11T09:50:00;102159.91;;;4.79;50.20
75891;BME280;64571;47.512;19.054;2023-02-11T09:53:31;102161.31;;;5.02;49.56
75891;BME280;64571;47.512;19.054;2023-02-11T09:56:36;102150.78;;;4.86;49.79
75891;BME280;64571;47.512;19.054;2023-02-11T09:59:39;102147.81;;;4.87;49.91
75891;BME280;64571;47.512;19.054;2023-02-11T10:06:38;102151.41;;;4.88;50.08
75891;BME280;64571;47.512;19.054;2023-02-11T10:13:00;102142.00;;;5.08;50.03
75891;BME280;64571;47.512;19.054;2023-02-11T10:19:29;102126.00;;;5.30;49.92
75891;BME280;64571;47.512;19.054;2023-02-11T10:22:49;102113.78;;;5.13;50.09
75891;BME280;64571;47.512;19.054;2023-02-11T10:25:55;102118.97;;;5.34;50.06
75891;BME280;64571;47.512;19.054;2023-02-11T10:29:01;102099.09;;;5.26;50.03
75891;BME280;64571;47.512;19.054;2023-02-11T10:32:25;102108.94;;;5.47;50.05
75891;BME280;64571;47.512;19.054;2023-02-11T10:35:31;102096.44;;;5.44;49.69
75891;BME280;64571;47.512;19.054;2023-02-11T10:38:35;102098.72;;;5.54;49.26
75891;BME280;64571;47.512;19.054;2023-02-11T10:41:42;102096.16;;;5.52;49.24
75891;BME280;64571;47.512;19.054;2023-02-11T10:45:05;102083.81;;;5.30;49.75
75891;BME280;64571;47.512;19.054;2023-02-11T10:51:44;102088.38;;;5.74;49.14
75891;BME280;64571;47.512;19.054;2023-02-11T10:55:13;102066.44;;;6.11;48.51
75891;BME280;64571;47.512;19.054;2023-02-11T10:58:44;102078.59;;;6.28;47.82
75891;BME280;64571;47.512;19.054;2023-02-11T11:01:50;102058.44;;;6.03;47.90
75891;BME280;64571;47.512;19.054;2023-02-11T11:04:58;102072.44;;;6.08;48.01
75891;BME280;64571;47.512;19.054;2023-02-11T11:08:06;102054.50;;;6.17;47.82
75891;BME280;64571;47.512;19.054;2023-02-11T11:11:13;102065.88;;;6.27;47.62
75891;BME280;64571;47.512;19.054;2023-02-11T11:14:19;102058.81;;;6.50;47.61
75891;BME280;64571;47.512;19.054;2023-02-11T11:17:23;102038.56;;;6.56;47.35
75891;BME280;64571;47.512;19.054;2023-02-11T11:20:30;102024.50;;;6.39;47.30
75891;BME280;64571;47.512;19.054;2023-02-11T11:23:38;102030.88;;;6.21;48.51
75891;BME280;64571;47.512;19.054;2023-02-11T11:26:43;102060.34;;;6.27;48.16
75891;BME280;64571;47.512;19.054;2023-02-11T11:29:49;102041.69;;;6.04;48.04
75891;BME280;64571;47.512;19.054;2023-02-11T11:32:53;102042.16;;;5.70;48.59
75891;BME280;64571;47.512;19.054;2023-02-11T11:39:03;102032.00;;;5.89;48.66
75891;BME280;64571;47.512;19.054;2023-02-11T11:42:33;102019.53;;;6.29;48.08
75891;BME280;64571;47.512;19.054;2023-02-11T11:45:36;102003.97;;;6.53;47.23
75891;BME280;64571;47.512;19.054;2023-02-11T11:48:41;101994.34;;;6.56;46.80
75891;BME280;64571;47.512;19.054;2023-02-11T11:52:10;101992.75;;;6.67;46.17
75891;BME280;64571;47.512;19.054;2023-02-11T11:55:20;101989.19;;;6.78;45.37
75891;BME280;64571;47.512;19.054;2023-02-11T11:58:23;101970.41;;;6.68;44.38
75891;BME280;64571;47.512;19.054;2023-02-11T12:05:01;101986.50;;;6.90;43.41
75891;BME280;64571;47.512;19.054;2023-02-11T12:08:22;101981.75;;;7.20;42.61
75891;BME280;64571;47.512;19.054;2023-02-11T12:25:07;101924.19;;;7.29;42.12
75891;BME280;64571;47.512;19.054;2023-02-11T12:28:30;101909.03;;;7.20;42.20
75891;BME280;64571;47.512;19.054;2023-02-11T12:32:00;101924.69;;;7.37;42.46
75891;BME280;64571;47.512;19.054;2023-02-11T12:35:14;101914.47;;;7.26;41.70
75891;BME280;64571;47.512;19.054;2023-02-11T12:41:58;101913.75;;;7.43;41.73
75891;BME280;64571;47.512;19.054;2023-02-11T12:45:30;101907.13;;;7.32;40.84
75891;BME280;64571;47.512;19.054;2023-02-11T12:52:09;101877.44;;;7.27;39.57
75891;BME280;64571;47.512;19.054;2023-02-11T12:55:24;101887.78;;;7.44;39.11
75891;BME280;64571;47.512;19.054;2023-02-11T12:58:30;101886.19;;;7.59;38.92
75891;BME280;64571;47.512;19.054;2023-02-11T13:01:48;101869.16;;;7.39;38.73
75891;BME280;64571;47.512;19.054;2023-02-11T13:04:55;101882.25;;;7.32;38.92
75891;BME280;64571;47.512;19.054;2023-02-11T13:08:13;101875.25;;;7.29;39.34
75891;BME280;64571;47.512;19.054;2023-02-11T13:11:39;101886.69;;;7.68;38.53
75891;BME280;64571;47.512;19.054;2023-02-11T13:14:42;101874.66;;;7.62;38.14
75891;BME280;64571;47.512;19.054;2023-02-11T13:17:59;101851.06;;;7.60;37.99
75891;BME280;64571;47.512;19.054;2023-02-11T13:21:13;101859.38;;;7.60;37.89
75891;BME280;64571;47.512;19.054;2023-02-11T13:24:30;101859.53;;;7.53;38.19
75891;BME280;64571;47.512;19.054;2023-02-11T13:28:02;101856.59;;;7.60;38.54
75891;BME280;64571;47.512;19.054;2023-02-11T13:31:08;101841.00;;;7.54;38.36
75891;BME280;64571;47.512;19.054;2023-02-11T13:37:51;101839.66;;;7.56;38.54
75891;BME280;64571;47.512;19.054;2023-02-11T13:47:31;101829.94;;;7.42;38.68
75891;BME280;64571;47.512;19.054;2023-02-11T13:50:38;101822.97;;;7.40;38.64
75891;BME280;64571;47.512;19.054;2023-02-11T13:53:56;101837.53;;;7.35;38.79
75891;BME280;64571;47.512;19.054;2023-02-11T13:57:24;101832.56;;;7.37;39.61
75891;BME280;64571;47.512;19.054;2023-02-11T14:03:37;101847.50;;;7.48;39.99
75891;BME280;64571;47.512;19.054;2023-02-11T14:07:31;101843.87;;;7.47;39.55
75891;BME280;64571;47.512;19.054;2023-02-11T14:11:08;101846.78;;;7.41;39.50
75891;BME280;64571;47.512;19.054;2023-02-11T14:17:31;101829.06;;;7.65;39.77
75891;BME280;64571;47.512;19.054;2023-02-11T14:20:37;101819.28;;;7.74;39.46
75891;BME280;64571;47.512;19.054;2023-02-11T14:23:44;101817.25;;;7.81;38.92
75891;BME280;64571;47.512;19.054;2023-02-11T14:26:54;101835.62;;;7.87;39.38
75891;BME280;64571;47.512;19.054;2023-02-11T14:30:28;101848.97;;;7.91;39.21
75891;BME280;64571;47.512;19.054;2023-02-11T14:33:46;101852.97;;;7.83;39.50
75891;BME280;64571;47.512;19.054;2023-02-11T14:43:28;101860.47;;;7.59;40.07
75891;BME280;64571;47.512;19.054;2023-02-11T14:46:33;101840.50;;;7.57;40.50
75891;BME280;64571;47.512;19.054;2023-02-11T14:49:38;101838.59;;;7.57;40.38
75891;BME280;64571;47.512;19.054;2023-02-11T14:52:42;101851.91;;;7.72;40.52
75891;BME280;64571;47.512;19.054;2023-02-11T14:55:50;101848.88;;;7.74;40.71
75891;BME280;64571;47.512;19.054;2023-02-11T14:58:56;101839.75;;;7.73;40.97
75891;BME280;64571;47.512;19.054;2023-02-11T15:01:59;101813.91;;;7.56;40.81
75891;BME280;64571;47.512;19.054;2023-02-11T15:05:22;101830.50;;;7.56;40.92
75891;BME280;64571;47.512;19.054;2023-02-11T15:08:29;101818.03;;;7.42;41.34
75891;BME280;64571;47.512;19.054;2023-02-11T15:11:38;101809.63;;;7.36;41.42
75891;BME280;64571;47.512;19.054;2023-02-11T15:14:45;101811.53;;;7.24;41.67
75891;BME280;64571;47.512;19.054;2023-02-11T15:17:49;101783.91;;;7.13;41.91
75891;BME280;64571;47.512;19.054;2023-02-11T15:20:52;101810.59;;;7.30;42.63
75891;BME280;64571;47.512;19.054;2023-02-11T15:24:04;101800.00;;;7.27;42.11
75891;BME280;64571;47.512;19.054;2023-02-11T15:33:26;101797.00;;;7.05;42.35
75891;BME280;64571;47.512;19.054;2023-02-11T15:36:31;101796.91;;;7.12;42.68
75891;BME280;64571;47.512;19.054;2023-02-11T15:39:39;101790.53;;;7.12;43.22
75891;BME280;64571;47.512;19.054;2023-02-11T15:46:00;101767.09;;;6.91;43.07
75891;BME280;64571;47.512;19.054;2023-02-11T15:49:03;101780.56;;;6.99;43.42
75891;BME280;64571;47.512;19.054;2023-02-11T15:52:06;101779.09;;;6.96;43.91
75891;BME280;64571;47.512;19.054;2023-02-11T15:55:12;101755.28;;;6.83;44.13
75891;BME280;64571;47.512;19.054;2023-02-11T15:58:16;101780.06;;;6.90;44.34
75891;BME280;64571;47.512;19.054;2023-02-11T16:01:18;101767.44;;;6.82;44.40
75891;BME280;64571;47.512;19.054;2023-02-11T16:04:23;101765.50;;;6.71;44.81
75891;BME280;64571;47.512;19.054;2023-02-11T16:07:48;101755.91;;;6.62;44.97
75891;BME280;64571;47.512;19.054;2023-02-11T16:10:57;101763.81;;;6.70;44.88
75891;BME280;64571;47.512;19.054;2023-02-11T16:14:01;101752.16;;;6.68;45.42
75891;BME280;64571;47.512;19.054;2023-02-11T16:17:11;101760.72;;;6.67;45.42
75891;BME280;64571;47.512;19.054;2023-02-11T16:20:18;101761.75;;;6.66;45.59
75891;BME280;64571;47.512;19.054;2023-02-11T16:23:30;101751.81;;;6.65;45.88
75891;BME280;64571;47.512;19.054;2023-02-11T16:26:38;101743.75;;;6.63;46.03
75891;BME280;64571;47.512;19.054;2023-02-11T16:29:46;101749.63;;;6.55;45.96
75891;BME280;64571;47.512;19.054;2023-02-11T16:32:52;101742.53;;;6.47;46.00
75891;BME280;64571;47.512;19.054;2023-02-11T16:35:55;101740.97;;;6.40;46.32
75891;BME280;64571;47.512;19.054;2023-02-11T16:38:58;101757.66;;;6.45;46.35
75891;BME280;64571;47.512;19.054;2023-02-11T16:42:02;101754.78;;;6.40;46.53
75891;BME280;64571;47.512;19.054;2023-02-11T16:45:08;101755.63;;;6.40;46.50
75891;BME280;64571;47.512;19.054;2023-02-11T16:48:15;101759.69;;;6.38;46.65
75891;BME280;64571;47.512;19.054;2023-02-11T16:51:19;101752.72;;;6.35;46.93
75891;BME280;64571;47.512;19.054;2023-02-11T16:54:22;101741.31;;;6.31;46.91
75891;BME280;64571;47.512;19.054;2023-02-11T16:57:25;101733.38;;;6.23;47.01
75891;BME280;64571;47.512;19.054;2023-02-11T17:00:31;101732.16;;;6.19;47.70
75891;BME280;64571;47.512;19.054;2023-02-11T17:03:35;101756.03;;;6.25;47.86
75891;BME280;64571;47.512;19.054;2023-02-11T17:06:41;101739.47;;;6.25;47.43
75891;BME280;64571;47.512;19.054;2023-02-11T17:09:44;101735.63;;;6.15;47.68
75891;BME280;64571;47.512;19.054;2023-02-11T17:12:47;101735.50;;;6.21;47.63
75891;BME280;64571;47.512;19.054;2023-02-11T17:15:50;101750.88;;;6.17;47.66
75891;BME280;64571;47.512;19.054;2023-02-11T17:18:53;101749.41;;;6.15;47.57
75891;BME280;64571;47.512;19.054;2023-02-11T17:21:55;101752.41;;;6.13;47.75
75891;BME280;64571;47.512;19.054;2023-02-11T17:24:58;101758.78;;;6.14;47.81
75891;BME280;64571;47.512;19.054;2023-02-11T17:28:01;101752.28;;;6.08;47.73
75891;BME280;64571;47.512;19.054;2023-02-11T17:31:07;101741.44;;;5.95;47.75
75891;BME280;64571;47.512;19.054;2023-02-11T17:34:11;101776.19;;;6.14;47.88
75891;BME280;64571;47.512;19.054;2023-02-11T17:37:13;101771.88;;;6.18;47.95
75891;BME280;64571;47.512;19.054;2023-02-11T17:40:16;101763.59;;;6.18;47.95
75891;BME280;64571;47.512;19.054;2023-02-11T17:43:19;101769.50;;;6.22;48.15
75891;BME280;64571;47.512;19.054;2023-02-11T17:46:21;101765.28;;;6.19;48.57
75891;BME280;64571;47.512;19.054;2023-02-11T17:49:24;101765.28;;;6.19;48.04
75891;BME280;64571;47.512;19.054;2023-02-11T17:52:26;101743.62;;;6.04;48.07
75891;BME280;64571;47.512;19.054;2023-02-11T17:55:32;101766.72;;;6.22;48.21
75891;BME280;64571;47.512;19.054;2023-02-11T17:58:35;101755.31;;;6.18;48.36
75891;BME280;64571;47.512;19.054;2023-02-11T18:01:39;101746.53;;;6.21;48.34